sensor_id;sensor_type;location;lat;lon;timestamp;pressure;altitude;pressure_sealevel;temperature;humidity
71567;BME280;59403;47.456;19.120;2023-05-17T00:01:02;99524.03;;;14.21;100.00
71567;BME280;59403;47.456;19.120;2023-05-17T00:03:29;99513.56;;;14.20;100.00
71567;BME280;59403;47.456;19.120;2023-05-17T00:05:56;99510.91;;;14.20;100.00
71567;BME280;59403;47.456;19.120;2023-05-17T00:08:24;99509.28;;;14.19;100.00
71567;BME280;59403;47.456;19.120;2023-05-17T00:10:51;99522.81;;;14.17;100.00
71567;BME280;59403;47.456;19.120;2023-05-17T00:13:18;99527.31;;;14.17;100.00
71567;BME280;59403;47.456;19.120;2023-05-17T00:15:44;99528.94;;;14.18;100.00
71567;BME280;59403;47.456;19.120;2023-05-17T00:18:11;99531.41;;;14.19;100.00
71567;BME280;59403;47.456;19.120;2023-05-17T00:20:38;99530.78;;;14.17;100.00
71567;BME280;59403;47.456;19.120;2023-05-17T00:23:05;99525.88;;;14.14;100.00
71567;BME280;59403;47.456;19.120;2023-05-17T00:25:33;99525.88;;;14.14;100.00
71567;BME280;59403;47.456;19.120;2023-05-17T00:28:00;99522.38;;;14.14;100.00
71567;BME280;59403;47.456;19.120;2023-05-17T00:30:27;99514.41;;;14.14;100.00
71567;BME280;59403;47.456;19.120;2023-05-17T00:32:54;99517.91;;;14.14;100.00
71567;BME280;59403;47.456;19.120;2023-05-17T00:35:21;99517.28;;;14.12;100.00
71567;BME280;59403;47.456;19.120;2023-05-17T00:37:48;99519.09;;;14.12;100.00
71567;BME280;59403;47.456;19.120;2023-05-17T00:40:15;99517.47;;;14.11;100.00
71567;BME280;59403;47.456;19.120;2023-05-17T00:42:44;99508.88;;;14.09;100.00
71567;BME280;59403;47.456;19.120;2023-05-17T00:45:10;99513.56;;;14.07;100.00
71567;BME280;59403;47.456;19.120;2023-05-17T00:47:38;99511.09;;;14.05;100.00
71567;BME280;59403;47.456;19.120;2023-05-17T00:50:06;99513.34;;;14.02;100.00
71567;BME280;59403;47.456;19.120;2023-05-17T00:52:33;99522.13;;;13.96;100.00
71567;BME280;59403;47.456;19.120;2023-05-17T00:55:00;99519.66;;;13.94;100.00
71567;BME280;59403;47.456;19.120;2023-05-17T00:57:28;99518.81;;;13.94;100.00
71567;BME280;59403;47.456;19.120;2023-05-17T00:59:57;99529.25;;;13.89;100.00
71567;BME280;59403;47.456;19.120;2023-05-17T01:05:02;99530.44;;;13.80;100.00
71567;BME280;59403;47.456;19.120;2023-05-17T01:07:30;99530.28;;;13.81;100.00
71567;BME280;59403;47.456;19.120;2023-05-17T01:10:00;99531.69;;;13.84;100.00
71567;BME280;59403;47.456;19.120;2023-05-17T01:12:34;99532.53;;;13.84;100.00
71567;BME280;59403;47.456;19.120;2023-05-17T01:15:10;99532.53;;;13.84;100.00
71567;BME280;59403;47.456;19.120;2023-05-17T01:17:45;99524.34;;;13.86;100.00
71567;BME280;59403;47.456;19.120;2023-05-17T01:20:18;99525.16;;;13.86;100.00
71567;BME280;59403;47.456;19.120;2023-05-17T01:22:51;99523.31;;;13.87;100.00
71567;BME280;59403;47.456;19.120;2023-05-17T01:25:27;99522.31;;;13.88;100.00
71567;BME280;59403;47.456;19.120;2023-05-17T01:27:58;99521.47;;;13.87;100.00
71567;BME280;59403;47.456;19.120;2023-05-17T01:30:27;99525.38;;;13.85;100.00
71567;BME280;59403;47.456;19.120;2023-05-17T01:32:55;99519.41;;;13.83;100.00
71567;BME280;59403;47.456;19.120;2023-05-17T01:35:24;99515.09;;;13.82;100.00
71567;BME280;59403;47.456;19.120;2023-05-17T01:37:52;99515.53;;;13.85;100.00
71567;BME280;59403;47.456;19.120;2023-05-17T01:40:19;99503.03;;;13.86;100.00
71567;BME280;59403;47.456;19.120;2023-05-17T01:42:52;99503.03;;;13.86;100.00
71567;BME280;59403;47.456;19.120;2023-05-17T01:45:24;99501.59;;;13.83;100.00
71567;BME280;59403;47.456;19.120;2023-05-17T01:47:59;99497.50;;;13.81;100.00
71567;BME280;59403;47.456;19.120;2023-05-17T01:50:34;99485.19;;;13.73;100.00
71567;BME280;59403;47.456;19.120;2023-05-17T01:53:06;99492.16;;;13.74;100.00
71567;BME280;59403;47.456;19.120;2023-05-17T01:55:40;99484.59;;;13.78;100.00
71567;BME280;59403;47.456;19.120;2023-05-17T01:58:10;99493.00;;;13.81;100.00
71567;BME280;59403;47.456;19.120;2023-05-17T02:00:41;99507.53;;;13.85;100.00
71567;BME280;59403;47.456;19.120;2023-05-17T02:03:11;99511.66;;;13.88;100.00
71567;BME280;59403;47.456;19.120;2023-05-17T02:05:39;99515.38;;;13.93;100.00
71567;BME280;59403;47.456;19.120;2023-05-17T02:08:05;99517.00;;;13.94;100.00
71567;BME280;59403;47.456;19.120;2023-05-17T02:10:32;99514.13;;;13.96;100.00
71567;BME280;59403;47.456;19.120;2023-05-17T02:12:59;99509.84;;;13.95;100.00
71567;BME280;59403;47.456;19.120;2023-05-17T02:15:26;99512.50;;;13.95;100.00
71567;BME280;59403;47.456;19.120;2023-05-17T02:17:54;99510.03;;;13.93;100.00
71567;BME280;59403;47.456;19.120;2023-05-17T02:20:22;99520.50;;;13.95;100.00
71567;BME280;59403;47.456;19.120;2023-05-17T02:22:49;99512.50;;;13.95;100.00
71567;BME280;59403;47.456;19.120;2023-05-17T02:25:16;99512.28;;;13.96;100.00
71567;BME280;59403;47.456;19.120;2023-05-17T02:27:42;99521.72;;;13.99;100.00
71567;BME280;59403;47.456;19.120;2023-05-17T02:30:10;99530.31;;;14.01;100.00
71567;BME280;59403;47.456;19.120;2023-05-17T02:32:38;99526.44;;;14.03;100.00
71567;BME280;59403;47.456;19.120;2023-05-17T02:35:07;99531.56;;;14.05;100.00
71567;BME280;59403;47.456;19.120;2023-05-17T02:37:34;99536.69;;;14.06;100.00
71567;BME280;59403;47.456;19.120;2023-05-17T02:40:01;99542.03;;;14.06;100.00
71567;BME280;59403;47.456;19.120;2023-05-17T02:42:33;99542.03;;;14.06;100.00
71567;BME280;59403;47.456;19.120;2023-05-17T02:44:59;99542.22;;;14.05;100.00
71567;BME280;59403;47.456;19.120;2023-05-17T02:47:27;99538.31;;;14.01;100.00
71567;BME280;59403;47.456;19.120;2023-05-17T02:49:54;99544.88;;;13.98;100.00
71567;BME280;59403;47.456;19.120;2023-05-17T02:52:22;99542.59;;;13.95;100.00
71567;BME280;59403;47.456;19.120;2023-05-17T02:54:49;99540.94;;;13.94;100.00
71567;BME280;59403;47.456;19.120;2023-05-17T02:57:16;99539.31;;;13.93;100.00
71567;BME280;59403;47.456;19.120;2023-05-17T02:59:42;99532.34;;;13.92;100.00
71567;BME280;59403;47.456;19.120;2023-05-17T03:02:10;99536.25;;;13.90;100.00
71567;BME280;59403;47.456;19.120;2023-05-17T03:04:37;99537.25;;;13.89;100.00
71567;BME280;59403;47.456;19.120;2023-05-17T03:07:04;99541.94;;;13.87;100.00
71567;BME280;59403;47.456;19.120;2023-05-17T03:09:33;99552.16;;;13.83;100.00
71567;BME280;59403;47.456;19.120;2023-05-17T03:12:00;99544.56;;;13.80;100.00
71567;BME280;59403;47.456;19.120;2023-05-17T03:14:27;99552.97;;;13.77;100.00
71567;BME280;59403;47.456;19.120;2023-05-17T03:16:54;99553.16;;;13.76;100.00
71567;BME280;59403;47.456;19.120;2023-05-17T03:19:21;99553.38;;;13.74;100.00
71567;BME280;59403;47.456;19.120;2023-05-17T03:21:48;99553.97;;;13.76;100.00
71567;BME280;59403;47.456;19.120;2023-05-17T03:24:14;99544.75;;;13.72;100.00
71567;BME280;59403;47.456;19.120;2023-05-17T03:26:43;99544.75;;;13.72;100.00
71567;BME280;59403;47.456;19.120;2023-05-17T03:29:09;99546.38;;;13.73;100.00
71567;BME280;59403;47.456;19.120;2023-05-17T03:31:36;99543.09;;;13.71;100.00
71567;BME280;59403;47.456;19.120;2023-05-17T03:34:03;99546.38;;;13.73;100.00
71567;BME280;59403;47.456;19.120;2023-05-17T03:36:32;99558.50;;;13.76;100.00
71567;BME280;59403;47.456;19.120;2023-05-17T03:39:00;99554.59;;;13.78;100.00
71567;BME280;59403;47.456;19.120;2023-05-17T03:41:26;99557.06;;;13.80;100.00
71567;BME280;59403;47.456;19.120;2023-05-17T03:43:55;99555.66;;;13.84;100.00
71567;BME280;59403;47.456;19.120;2023-05-17T03:46:22;99576.38;;;13.88;100.00
71567;BME280;59403;47.456;19.120;2023-05-17T03:48:49;99582.13;;;13.92;100.00
71567;BME280;59403;47.456;19.120;2023-05-17T03:51:16;99595.22;;;13.93;100.00
71567;BME280;59403;47.456;19.120;2023-05-17T03:53:43;99601.78;;;13.97;100.00
71567;BME280;59403;47.456;19.120;2023-05-17T03:56:10;99603.03;;;14.01;100.00
71567;BME280;59403;47.456;19.120;2023-05-17T03:58:37;99608.78;;;14.05;100.00
71567;BME280;59403;47.456;19.120;2023-05-17T04:01:05;99615.56;;;14.07;100.00
71567;BME280;59403;47.456;19.120;2023-05-17T04:03:32;99615.16;;;14.10;100.00
71567;BME280;59403;47.456;19.120;2023-05-17T04:06:03;99611.47;;;14.11;100.00
71567;BME280;59403;47.456;19.120;2023-05-17T04:08:31;99604.09;;;14.13;100.00
71567;BME280;59403;47.456;19.120;2023-05-17T04:10:59;99600.25;;;14.16;100.00
71567;BME280;59403;47.456;19.120;2023-05-17T04:13:34;99595.50;;;14.18;100.00
71567;BME280;59403;47.456;19.120;2023-05-17T04:16:01;99598.81;;;14.20;100.00
71567;BME280;59403;47.456;19.120;2023-05-17T04:18:29;99607.41;;;14.22;100.00
71567;BME280;59403;47.456;19.120;2023-05-17T04:20:56;99614.41;;;14.23;100.00
71567;BME280;59403;47.456;19.120;2023-05-17T04:23:23;99615.81;;;14.25;100.00
71567;BME280;59403;47.456;19.120;2023-05-17T04:25:49;99625.50;;;14.26;100.00
71567;BME280;59403;47.456;19.120;2023-05-17T04:28:17;99627.78;;;14.29;100.00
71567;BME280;59403;47.456;19.120;2023-05-17T04:30:46;99622.66;;;14.34;100.00
71567;BME280;59403;47.456;19.120;2023-05-17T04:33:13;99620.63;;;14.36;100.00
71567;BME280;59403;47.456;19.120;2023-05-17T04:35:41;99627.16;;;14.40;100.00
71567;BME280;59403;47.456;19.120;2023-05-17T04:38:08;99637.44;;;14.43;100.00
71567;BME280;59403;47.456;19.120;2023-05-17T04:40:36;99647.91;;;14.45;100.00
71567;BME280;59403;47.456;19.120;2023-05-17T04:43:03;99656.53;;;14.47;100.00
71567;BME280;59403;47.456;19.120;2023-05-17T04:45:30;99661.44;;;14.50;100.00
71567;BME280;59403;47.456;19.120;2023-05-17T04:47:57;99665.56;;;14.52;100.00
71567;BME280;59403;47.456;19.120;2023-05-17T04:50:25;99671.13;;;14.57;100.00
71567;BME280;59403;47.456;19.120;2023-05-17T04:52:53;99671.53;;;14.61;100.00
71567;BME280;59403;47.456;19.120;2023-05-17T04:55:20;99677.66;;;14.61;100.00
71567;BME280;59403;47.456;19.120;2023-05-17T04:57:47;99679.94;;;14.64;100.00
71567;BME280;59403;47.456;19.120;2023-05-17T05:00:14;99677.50;;;14.69;100.00
71567;BME280;59403;47.456;19.120;2023-05-17T05:02:41;99677.72;;;14.74;100.00
71567;BME280;59403;47.456;19.120;2023-05-17T05:05:10;99676.31;;;14.78;100.00
71567;BME280;59403;47.456;19.120;2023-05-17T05:07:37;99675.69;;;14.83;100.00
71567;BME280;59403;47.456;19.120;2023-05-17T05:10:07;99686.56;;;14.88;100.00
71567;BME280;59403;47.456;19.120;2023-05-17T05:12:33;99687.63;;;14.94;100.00
71567;BME280;59403;47.456;19.120;2023-05-17T05:15:00;99685.78;;;14.94;100.00
71567;BME280;59403;47.456;19.120;2023-05-17T05:17:29;99690.69;;;14.97;100.00
71567;BME280;59403;47.456;19.120;2023-05-17T05:19:56;99683.53;;;14.98;100.00
71567;BME280;59403;47.456;19.120;2023-05-17T05:22:23;99678.38;;;14.96;100.00
71567;BME280;59403;47.456;19.120;2023-05-17T05:24:50;99690.50;;;14.99;100.00
71567;BME280;59403;47.456;19.120;2023-05-17T05:27:18;99689.03;;;14.96;100.00
71567;BME280;59403;47.456;19.120;2023-05-17T05:29:45;99693.16;;;14.99;100.00
71567;BME280;59403;47.456;19.120;2023-05-17T05:32:12;99687.19;;;15.03;100.00
71567;BME280;59403;47.456;19.120;2023-05-17T05:34:43;99694.00;;;15.06;100.00
71567;BME280;59403;47.456;19.120;2023-05-17T05:37:10;99695.41;;;15.08;100.00
71567;BME280;59403;47.456;19.120;2023-05-17T05:39:37;99703.41;;;15.08;100.00
71567;BME280;59403;47.456;19.120;2023-05-17T05:42:04;99711.84;;;15.12;100.00
71567;BME280;59403;47.456;19.120;2023-05-17T05:44:32;99714.31;;;15.13;100.00
71567;BME280;59403;47.456;19.120;2023-05-17T05:46:59;99710.22;;;15.17;100.00
71567;BME280;59403;47.456;19.120;2023-05-17T05:49:26;99719.87;;;15.25;100.00
71567;BME280;59403;47.456;19.120;2023-05-17T05:51:53;99718.44;;;15.29;100.00
71567;BME280;59403;47.456;19.120;2023-05-17T05:54:20;99713.91;;;15.29;100.00
71567;BME280;59403;47.456;19.120;2023-05-17T05:56:49;99715.56;;;15.30;100.00
71567;BME280;59403;47.456;19.120;2023-05-17T05:59:16;99700.59;;;15.36;100.00
71567;BME280;59403;47.456;19.120;2023-05-17T06:01:44;99697.13;;;15.42;100.00
71567;BME280;59403;47.456;19.120;2023-05-17T06:04:12;99688.13;;;15.43;100.00
71567;BME280;59403;47.456;19.120;2023-05-17T06:06:39;99695.91;;;15.51;100.00
71567;BME280;59403;47.456;19.120;2023-05-17T06:09:05;99705.34;;;15.53;100.00
71567;BME280;59403;47.456;19.120;2023-05-17T06:11:36;99705.34;;;15.53;100.00
71567;BME280;59403;47.456;19.120;2023-05-17T06:14:03;99717.06;;;15.52;100.00
71567;BME280;59403;47.456;19.120;2023-05-17T06:16:30;99720.56;;;15.53;100.00
71567;BME280;59403;47.456;19.120;2023-05-17T06:18:58;99719.31;;;15.55;100.00
71567;BME280;59403;47.456;19.120;2023-05-17T06:21:25;99720.53;;;15.59;100.00
71567;BME280;59403;47.456;19.120;2023-05-17T06:23:52;99724.44;;;15.63;100.00
71567;BME280;59403;47.456;19.120;2023-05-17T06:26:19;99727.34;;;15.62;100.00
71567;BME280;59403;47.456;19.120;2023-05-17T06:28:45;99728.13;;;15.62;100.00
71567;BME280;59403;47.456;19.120;2023-05-17T06:31:12;99719.72;;;15.65;100.00
71567;BME280;59403;47.456;19.120;2023-05-17T06:33:39;99723.00;;;15.74;100.00
71567;BME280;59403;47.456;19.120;2023-05-17T06:36:08;99727.31;;;15.75;100.00
71567;BME280;59403;47.456;19.120;2023-05-17T06:38:34;99719.91;;;15.77;100.00
71567;BME280;59403;47.456;19.120;2023-05-17T06:41:04;99726.28;;;15.82;100.00
71567;BME280;59403;47.456;19.120;2023-05-17T06:43:31;99728.75;;;15.84;100.00
71567;BME280;59403;47.456;19.120;2023-05-17T06:45:58;99735.31;;;15.88;100.00
71567;BME280;59403;47.456;19.120;2023-05-17T06:48:25;99745.19;;;15.87;100.00
71567;BME280;59403;47.456;19.120;2023-05-17T06:50:52;99746.81;;;15.88;100.00
71567;BME280;59403;47.456;19.120;2023-05-17T06:53:20;99744.13;;;15.88;100.00
71567;BME280;59403;47.456;19.120;2023-05-17T06:55:47;99749.06;;;15.91;100.00
71567;BME280;59403;47.456;19.120;2023-05-17T06:58:14;99753.19;;;15.87;100.00
71567;BME280;59403;47.456;19.120;2023-05-17T07:00:41;99757.47;;;15.95;100.00
71567;BME280;59403;47.456;19.120;2023-05-17T07:03:07;99764.69;;;16.01;100.00
71567;BME280;59403;47.456;19.120;2023-05-17T07:05:34;99758.72;;;16.06;100.00
71567;BME280;59403;47.456;19.120;2023-05-17T07:08:02;99758.53;;;16.07;100.00
71567;BME280;59403;47.456;19.120;2023-05-17T07:10:30;99766.31;;;16.09;100.00
71567;BME280;59403;47.456;19.120;2023-05-17T07:12:57;99770.00;;;16.08;100.00
71567;BME280;59403;47.456;19.120;2023-05-17T07:15:24;99774.34;;;16.09;100.00
71567;BME280;59403;47.456;19.120;2023-05-17T07:17:51;99765.91;;;16.05;100.00
71567;BME280;59403;47.456;19.120;2023-05-17T07:20:19;99771.25;;;16.05;100.00
71567;BME280;59403;47.456;19.120;2023-05-17T07:22:46;99758.50;;;16.01;100.00
71567;BME280;59403;47.456;19.120;2023-05-17T07:25:13;99773.31;;;15.97;100.00
71567;BME280;59403;47.456;19.120;2023-05-17T07:27:43;99768.78;;;15.90;100.00
71567;BME280;59403;47.456;19.120;2023-05-17T07:30:11;99772.50;;;15.89;100.00
71567;BME280;59403;47.456;19.120;2023-05-17T07:32:38;99777.44;;;15.93;100.00
71567;BME280;59403;47.456;19.120;2023-05-17T07:35:05;99774.53;;;15.94;100.00
71567;BME280;59403;47.456;19.120;2023-05-17T07:37:32;99778.44;;;15.91;100.00
71567;BME280;59403;47.456;19.120;2023-05-17T07:39:59;99775.34;;;15.88;100.00
71567;BME280;59403;47.456;19.120;2023-05-17T07:42:26;99771.06;;;15.87;100.00
71567;BME280;59403;47.456;19.120;2023-05-17T07:44:54;99777.84;;;15.89;100.00
71567;BME280;59403;47.456;19.120;2023-05-17T07:47:21;99775.19;;;15.89;100.00
71567;BME280;59403;47.456;19.120;2023-05-17T07:49:48;99776.81;;;15.90;100.00
71567;BME280;59403;47.456;19.120;2023-05-17T07:52:15;99781.31;;;15.90;100.00
71567;BME280;59403;47.456;19.120;2023-05-17T07:54:42;99783.19;;;15.89;100.00
71567;BME280;59403;47.456;19.120;2023-05-17T07:57:09;99779.87;;;15.94;100.00
71567;BME280;59403;47.456;19.120;2023-05-17T07:59:36;99785.84;;;15.96;100.00
71567;BME280;59403;47.456;19.120;2023-05-17T08:02:04;99784.41;;;15.93;100.00
71567;BME280;59403;47.456;19.120;2023-05-17T08:04:31;99784.81;;;15.90;100.00
71567;BME280;59403;47.456;19.120;2023-05-17T08:06:58;99787.69;;;15.89;100.00
71567;BME280;59403;47.456;19.120;2023-05-17T08:09:25;99786.03;;;15.88;100.00
71567;BME280;59403;47.456;19.120;2023-05-17T08:11:52;99790.38;;;15.89;100.00
71567;BME280;59403;47.456;19.120;2023-05-17T08:14:21;99794.69;;;15.83;100.00
71567;BME280;59403;47.456;19.120;2023-05-17T08:16:49;99799.19;;;15.83;100.00
71567;BME280;59403;47.456;19.120;2023-05-17T08:19:17;99809.28;;;15.81;100.00
71567;BME280;59403;47.456;19.120;2023-05-17T08:21:44;99808.88;;;15.84;100.00
71567;BME280;59403;47.456;19.120;2023-05-17T08:24:11;99802.69;;;15.83;100.00
71567;BME280;59403;47.456;19.120;2023-05-17T08:26:39;99801.69;;;15.84;100.00
71567;BME280;59403;47.456;19.120;2023-05-17T08:29:09;99804.13;;;15.86;100.00
71567;BME280;59403;47.456;19.120;2023-05-17T08:31:35;99802.06;;;15.88;100.00
71567;BME280;59403;47.456;19.120;2023-05-17T08:34:02;99795.91;;;15.94;100.00
71567;BME280;59403;47.456;19.120;2023-05-17T08:36:31;99804.94;;;16.06;100.00
71567;BME280;59403;47.456;19.120;2023-05-17T08:38:58;99806.81;;;16.12;100.00
71567;BME280;59403;47.456;19.120;2023-05-17T08:41:24;99808.63;;;16.18;100.00
71567;BME280;59403;47.456;19.120;2023-05-17T08:43:51;99808.22;;;16.21;100.00
71567;BME280;59403;47.456;19.120;2023-05-17T08:46:19;99812.34;;;16.24;100.00
71567;BME280;59403;47.456;19.120;2023-05-17T08:48:49;99816.22;;;16.21;100.00
71567;BME280;59403;47.456;19.120;2023-05-17T08:51:16;99811.13;;;16.26;100.00
71567;BME280;59403;47.456;19.120;2023-05-17T08:53:46;99813.38;;;16.29;100.00
71567;BME280;59403;47.456;19.120;2023-05-17T08:56:15;99806.12;;;16.30;100.00
71567;BME280;59403;47.456;19.120;2023-05-17T08:58:44;99807.38;;;16.34;100.00
71567;BME280;59403;47.456;19.120;2023-05-17T09:01:15;99802.03;;;16.34;100.00
71567;BME280;59403;47.456;19.120;2023-05-17T09:03:46;99802.87;;;16.34;100.00
71567;BME280;59403;47.456;19.120;2023-05-17T09:06:15;99804.50;;;16.35;100.00
71567;BME280;59403;47.456;19.120;2023-05-17T09:08:43;99801.84;;;16.42;100.00
71567;BME280;59403;47.456;19.120;2023-05-17T09:11:11;99797.94;;;16.38;100.00
71567;BME280;59403;47.456;19.120;2023-05-17T09:13:38;99804.50;;;16.42;100.00
71567;BME280;59403;47.456;19.120;2023-05-17T09:16:12;99795.03;;;16.46;100.00
71567;BME280;59403;47.456;19.120;2023-05-17T09:18:40;99800.59;;;16.51;100.00
71567;BME280;59403;47.456;19.120;2023-05-17T09:21:08;99801.19;;;16.59;100.00
71567;BME280;59403;47.456;19.120;2023-05-17T09:23:38;99795.41;;;16.69;100.00
71567;BME280;59403;47.456;19.120;2023-05-17T09:26:06;99797.44;;;16.73;100.00
71567;BME280;59403;47.456;19.120;2023-05-17T09:28:39;99806.03;;;16.88;100.00
71567;BME280;59403;47.456;19.120;2023-05-17T09:31:06;99810.84;;;17.18;100.00
71567;BME280;59403;47.456;19.120;2023-05-17T09:33:34;99815.38;;;17.17;100.00
71567;BME280;59403;47.456;19.120;2023-05-17T09:36:01;99824.97;;;17.31;100.00
71567;BME280;59403;47.456;19.120;2023-05-17T09:38:28;99824.00;;;17.19;100.00
71567;BME280;59403;47.456;19.120;2023-05-17T09:40:55;99820.41;;;17.00;100.00
71567;BME280;59403;47.456;19.120;2023-05-17T09:43:23;99831.97;;;16.88;100.00
71567;BME280;59403;47.456;19.120;2023-05-17T09:45:55;99831.75;;;16.89;100.00
71567;BME280;59403;47.456;19.120;2023-05-17T09:48:24;99838.94;;;16.89;100.00
71567;BME280;59403;47.456;19.120;2023-05-17T09:50:52;99836.47;;;16.87;100.00
71567;BME280;59403;47.456;19.120;2023-05-17T09:53:27;99835.47;;;16.88;100.00
71567;BME280;59403;47.456;19.120;2023-05-17T09:55:55;99831.09;;;17.00;100.00
71567;BME280;59403;47.456;19.120;2023-05-17T09:58:23;99836.16;;;17.15;100.00
71567;BME280;59403;47.456;19.120;2023-05-17T10:00:52;99838.06;;;17.01;100.00
71567;BME280;59403;47.456;19.120;2023-05-17T10:03:20;99831.91;;;17.08;100.00
71567;BME280;59403;47.456;19.120;2023-05-17T10:05:50;99828.31;;;17.20;100.00
71567;BME280;59403;47.456;19.120;2023-05-17T10:08:21;99835.06;;;17.29;100.00
71567;BME280;59403;47.456;19.120;2023-05-17T10:11:00;99835.06;;;17.29;100.00
71567;BME280;59403;47.456;19.120;2023-05-17T10:13:33;99838.09;;;17.39;100.00
71567;BME280;59403;47.456;19.120;2023-05-17T10:16:01;99840.19;;;17.37;100.00
71567;BME280;59403;47.456;19.120;2023-05-17T10:18:32;99846.94;;;17.53;100.00
71567;BME280;59403;47.456;19.120;2023-05-17T10:20:59;99848.50;;;17.60;100.00
71567;BME280;59403;47.456;19.120;2023-05-17T10:23:30;99845.50;;;17.50;100.00
71567;BME280;59403;47.456;19.120;2023-05-17T10:25:58;99844.09;;;17.48;100.00
71567;BME280;59403;47.456;19.120;2023-05-17T10:28:26;99842.59;;;17.52;100.00
71567;BME280;59403;47.456;19.120;2023-05-17T10:30:54;99839.94;;;17.45;100.00
71567;BME280;59403;47.456;19.120;2023-05-17T10:33:23;99839.53;;;17.48;100.00
71567;BME280;59403;47.456;19.120;2023-05-17T10:35:54;99843.44;;;17.46;100.00
71567;BME280;59403;47.456;19.120;2023-05-17T10:38:21;99846.34;;;17.38;100.00
71567;BME280;59403;47.456;19.120;2023-05-17T10:40:49;99848.63;;;17.34;100.00
71567;BME280;59403;47.456;19.120;2023-05-17T10:43:30;99847.00;;;17.33;100.00
71567;BME280;59403;47.456;19.120;2023-05-17T10:46:02;99854.69;;;17.23;100.00
71567;BME280;59403;47.456;19.120;2023-05-17T10:48:29;99853.22;;;17.21;100.00
71567;BME280;59403;47.456;19.120;2023-05-17T10:51:04;99852.41;;;17.20;100.00
71567;BME280;59403;47.456;19.120;2023-05-17T10:53:32;99851.75;;;17.31;100.00
71567;BME280;59403;47.456;19.120;2023-05-17T10:55:59;99859.50;;;17.46;100.00
71567;BME280;59403;47.456;19.120;2023-05-17T10:58:27;99857.66;;;17.46;100.00
71567;BME280;59403;47.456;19.120;2023-05-17T11:00:54;99857.72;;;17.71;100.00
71567;BME280;59403;47.456;19.120;2023-05-17T11:03:25;99859.09;;;17.80;100.00
71567;BME280;59403;47.456;19.120;2023-05-17T11:06:16;99865.06;;;17.82;100.00
71567;BME280;59403;47.456;19.120;2023-05-17T11:09:04;99863.91;;;18.02;100.00
71567;BME280;59403;47.456;19.120;2023-05-17T11:11:32;99870.19;;;18.14;100.00
71567;BME280;59403;47.456;19.120;2023-05-17T11:14:03;99874.84;;;18.26;100.00
71567;BME280;59403;47.456;19.120;2023-05-17T11:16:34;99880.97;;;18.33;100.00
71567;BME280;59403;47.456;19.120;2023-05-17T11:19:06;99873.56;;;18.28;100.00
71567;BME280;59403;47.456;19.120;2023-05-17T11:21:44;99881.22;;;18.25;100.00
71567;BME280;59403;47.456;19.120;2023-05-17T11:24:12;99878.94;;;18.28;100.00
71567;BME280;59403;47.456;19.120;2023-05-17T11:26:44;99873.34;;;18.30;100.00
71567;BME280;59403;47.456;19.120;2023-05-17T11:29:11;99880.00;;;18.27;100.00
71567;BME280;59403;47.456;19.120;2023-05-17T11:31:42;99885.50;;;18.07;100.00
71567;BME280;59403;47.456;19.120;2023-05-17T11:34:10;99882.38;;;18.10;100.00
71567;BME280;59403;47.456;19.120;2023-05-17T11:36:52;99888.88;;;18.21;100.00
71567;BME280;59403;47.456;19.120;2023-05-17T11:39:20;99894.13;;;18.41;100.00
71567;BME280;59403;47.456;19.120;2023-05-17T11:41:48;99898.47;;;18.42;100.00
71567;BME280;59403;47.456;19.120;2023-05-17T11:44:21;99895.47;;;18.74;100.00
71567;BME280;59403;47.456;19.120;2023-05-17T11:46:49;99904.47;;;18.62;100.00
71567;BME280;59403;47.456;19.120;2023-05-17T11:49:17;99899.03;;;18.44;100.00
71567;BME280;59403;47.456;19.120;2023-05-17T11:51:45;99896.81;;;18.41;100.00
71567;BME280;59403;47.456;19.120;2023-05-17T11:54:13;99902.37;;;18.39;100.00
71567;BME280;59403;47.456;19.120;2023-05-17T11:56:43;99905.69;;;18.66;100.00
71567;BME280;59403;47.456;19.120;2023-05-17T11:59:10;99898.69;;;19.01;100.00
71567;BME280;59403;47.456;19.120;2023-05-17T12:01:44;99903.06;;;19.68;100.00
71567;BME280;59403;47.456;19.120;2023-05-17T12:04:11;99910.88;;;19.40;100.00
71567;BME280;59403;47.456;19.120;2023-05-17T12:06:38;99909.59;;;19.42;100.00
71567;BME280;59403;47.456;19.120;2023-05-17T12:09:06;99916.81;;;19.05;100.00
71567;BME280;59403;47.456;19.120;2023-05-17T12:11:36;99894.06;;;19.08;100.00
71567;BME280;59403;47.456;19.120;2023-05-17T12:14:04;99907.13;;;19.22;100.00
71567;BME280;59403;47.456;19.120;2023-05-17T12:16:33;99916.22;;;19.58;100.00
71567;BME280;59403;47.456;19.120;2023-05-17T12:19:02;99915.25;;;19.34;100.00
71567;BME280;59403;47.456;19.120;2023-05-17T12:21:29;99919.06;;;19.08;100.00
71567;BME280;59403;47.456;19.120;2023-05-17T12:23:55;99922.78;;;19.07;100.00
71567;BME280;59403;47.456;19.120;2023-05-17T12:26:22;99923.38;;;19.27;100.00
71567;BME280;59403;47.456;19.120;2023-05-17T12:28:55;99918.63;;;19.48;100.00
71567;BME280;59403;47.456;19.120;2023-05-17T12:31:26;99907.72;;;19.43;100.00
71567;BME280;59403;47.456;19.120;2023-05-17T12:33:55;99909.03;;;19.70;100.00
71567;BME280;59403;47.456;19.120;2023-05-17T12:36:23;99909.56;;;19.60;100.00
71567;BME280;59403;47.456;19.120;2023-05-17T12:38:51;99915.22;;;19.70;100.00
71567;BME280;59403;47.456;19.120;2023-05-17T12:41:19;99917.91;;;19.41;100.00
71567;BME280;59403;47.456;19.120;2023-05-17T12:43:47;99920.62;;;19.52;100.00
71567;BME280;59403;47.456;19.120;2023-05-17T12:46:17;99913.78;;;19.56;100.00
71567;BME280;59403;47.456;19.120;2023-05-17T12:48:45;99918.41;;;19.79;100.00